Time;durP1;ratioP1;P1;durP2;ratioP2;P2;SDS_P1;SDS_P2;PMS_P1;PMS_P2;Temp;Humidity;BMP_temperature;BMP_pressure;BME280_temperature;BME280_humidity;BME280_pressure;Samples;Min_cycle;Max_cycle;Signal;HPM_P1;HPM_P2
2022/05/03 00:01:19;;;;;;;6.93;4.50;;;;;;;;;;4900892;29;20021;-77
2022/05/03 00:04:07;;;;;;;10.10;5.05;;;;;;;;;;4915025;29;20496;-78
2022/05/03 00:06:39;;;;;;;7.57;4.67;;;;;;;;;;4901793;29;20084;-78
2022/05/03 00:09:05;;;;;;;8.10;4.57;;;;;;;;;;4915866;29;20362;-78
2022/05/03 00:11:33;;;;;;;8.35;4.47;;;;;;;;;;4899769;29;20036;-78
2022/05/03 00:14:19;;;;;;;9.02;5.10;;;;;;;;;;4900342;29;20045;-78
2022/05/03 00:16:45;;;;;;;8.90;5.53;;;;;;;;;;4898912;29;20024;-77
2022/05/03 00:19:11;;;;;;;8.65;4.90;;;;;;;;;;4900584;29;20020;-76
2022/05/03 00:21:36;;;;;;;9.65;5.00;;;;;;;;;;4899988;29;20048;-77
2022/05/03 00:24:02;;;;;;;9.48;4.47;;;;;;;;;;4914263;29;20029;-76
2022/05/03 00:26:28;;;;;;;8.15;4.35;;;;;;;;;;4900098;29;20036;-77
2022/05/03 00:28:54;;;;;;;8.00;4.55;;;;;;;;;;4900167;29;20524;-77
2022/05/03 00:31:20;;;;;;;10.32;4.82;;;;;;;;;;4900263;29;20027;-77
2022/05/03 00:33:45;;;;;;;11.45;5.32;;;;;;;;;;4899663;29;20021;-75
2022/05/03 00:36:10;;;;;;;8.75;5.07;;;;;;;;;;4900146;29;20024;-76
2022/05/03 00:38:38;;;;;;;9.27;5.40;;;;;;;;;;4914323;29;20025;-76
2022/05/03 00:41:05;;;;;;;8.90;5.35;;;;;;;;;;4899153;29;20331;-76
2022/05/03 00:43:43;;;;;;;9.85;5.07;;;;;;;;;;4899431;29;20405;-77
2022/05/03 00:46:21;;;;;;;8.93;4.75;;;;;;;;;;4897966;29;20033;-77
2022/05/03 00:49:00;;;;;;;8.93;4.93;;;;;;;;;;4898338;29;20029;-76
2022/05/03 00:51:34;;;;;;;8.32;4.90;;;;;;;;;;4898442;29;20028;-77
2022/05/03 00:54:06;;;;;;;8.25;4.93;;;;;;;;;;4897718;29;20021;-76
2022/05/03 00:56:38;;;;;;;8.98;4.65;;;;;;;;;;4898131;29;20456;-76
2022/05/03 00:59:22;;;;;;;7.93;4.90;;;;;;;;;;4899429;29;20092;-78
2022/05/03 01:01:59;;;;;;;7.30;4.57;;;;;;;;;;4899728;29;20017;-77
2022/05/03 01:04:26;;;;;;;7.25;5.07;;;;;;;;;;4912557;29;20096;-78
2022/05/03 01:06:56;;;;;;;9.10;5.43;;;;;;;;;;4898596;29;20020;-78
2022/05/03 01:09:32;;;;;;;8.73;5.20;;;;;;;;;;4898795;29;20028;-76
2022/05/03 01:12:00;;;;;;;10.60;5.07;;;;;;;;;;4899800;29;20020;-78
2022/05/03 01:14:41;;;;;;;8.70;4.97;;;;;;;;;;4899241;29;20025;-77
2022/05/03 01:17:20;;;;;;;8.13;4.80;;;;;;;;;;4899333;29;20469;-76
2022/05/03 01:19:45;;;;;;;13.52;5.82;;;;;;;;;;4899260;29;20118;-76
2022/05/03 01:22:17;;;;;;;9.67;5.50;;;;;;;;;;4899259;29;20056;-78
2022/05/03 01:25:01;;;;;;;9.30;5.68;;;;;;;;;;4898975;29;20252;-77
2022/05/03 01:27:32;;;;;;;9.18;4.93;;;;;;;;;;4913483;29;20060;-79
2022/05/03 01:29:58;;;;;;;8.77;5.22;;;;;;;;;;4913222;29;20455;-76
2022/05/03 01:32:26;;;;;;;8.82;4.68;;;;;;;;;;4898577;29;20052;-78
2022/05/03 01:34:52;;;;;;;9.90;5.13;;;;;;;;;;4898402;29;20076;-77
2022/05/03 01:37:23;;;;;;;10.32;5.55;;;;;;;;;;4898526;29;20025;-77
2022/05/03 01:40:02;;;;;;;9.48;5.03;;;;;;;;;;4898756;29;20484;-76
2022/05/03 01:42:46;;;;;;;11.27;5.53;;;;;;;;;;4898279;29;20033;-76
2022/05/03 01:45:11;;;;;;;8.38;5.47;;;;;;;;;;4898398;29;20020;-78
2022/05/03 01:47:46;;;;;;;7.70;5.07;;;;;;;;;;4898655;29;20117;-78
2022/05/03 01:50:30;;;;;;;9.55;4.97;;;;;;;;;;4898510;29;20265;-78
2022/05/03 01:53:05;;;;;;;8.07;5.45;;;;;;;;;;4897995;29;20033;-78
2022/05/03 01:55:36;;;;;;;8.60;5.40;;;;;;;;;;4898385;29;20047;-76
2022/05/03 01:58:19;;;;;;;9.88;6.18;;;;;;;;;;4898154;29;20020;-76
2022/05/03 02:00:47;;;;;;;8.88;5.55;;;;;;;;;;4898257;29;20027;-78
2022/05/03 02:03:33;;;;;;;9.57;5.00;;;;;;;;;;4898052;29;20108;-78
2022/05/03 02:06:00;;;;;;;10.32;5.63;;;;;;;;;;4897519;29;20096;-78
2022/05/03 02:08:32;;;;;;;10.20;5.43;;;;;;;;;;4897813;29;20047;-78
2022/05/03 02:11:01;;;;;;;8.88;5.53;;;;;;;;;;4896817;29;20031;-79
2022/05/03 02:16:31;;;;;;;10.18;6.10;;;;;;;;;;4897838;29;20528;-78
2022/05/03 02:19:08;;;;;;;9.30;5.55;;;;;;;;;;4897931;29;20028;-78
2022/05/03 02:21:39;;;;;;;9.48;6.32;;;;;;;;;;4898204;29;20021;-77
2022/05/03 02:24:12;;;;;;;9.95;6.57;;;;;;;;;;4897486;29;20031;-77
2022/05/03 02:26:58;;;;;;;9.55;5.80;;;;;;;;;;4897963;29;20025;-78
2022/05/03 02:29:30;;;;;;;10.63;6.13;;;;;;;;;;4897767;29;20043;-77
2022/05/03 02:32:03;;;;;;;11.35;5.68;;;;;;;;;;4898281;29;20025;-78
2022/05/03 02:34:34;;;;;;;9.82;5.75;;;;;;;;;;4896648;29;20115;-77
2022/05/03 02:37:06;;;;;;;14.88;5.70;;;;;;;;;;4897039;29;20024;-78
2022/05/03 02:39:41;;;;;;;10.85;6.25;;;;;;;;;;4896651;29;20060;-76
2022/05/03 02:44:59;;;;;;;12.00;7.28;;;;;;;;;;4875285;29;20036;-78
2022/05/03 02:50:48;;;;;;;11.75;6.05;;;;;;;;;;4894289;29;20032;-77
2022/05/03 02:53:20;;;;;;;13.60;6.50;;;;;;;;;;4874484;29;20080;-78
2022/05/03 02:56:13;;;;;;;11.23;6.07;;;;;;;;;;4878998;29;20054;-75
2022/05/03 03:05:30;;;;;;;11.43;6.00;;;;;;;;;;4820646;29;20149;-78
2022/05/03 03:08:37;;;;;;;10.93;6.20;;;;;;;;;;4805226;29;20073;-77
2022/05/03 03:20:19;;;;;;;9.60;6.10;;;;;;;;;;4784014;29;20118;-77
2022/05/03 03:29:34;;;;;;;10.93;6.03;;;;;;;;;;4752250;30;20065;-78
2022/05/03 03:32:06;;;;;;;15.32;7.63;;;;;;;;;;4712274;30;20033;-77
2022/05/03 03:34:41;;;;;;;8.75;5.88;;;;;;;;;;4706142;30;20119;-76
2022/05/03 03:37:25;;;;;;;15.77;7.82;;;;;;;;;;4759324;30;20050;-76
2022/05/03 03:39:59;;;;;;;12.98;6.90;;;;;;;;;;4770043;30;20768;-77
2022/05/03 03:42:28;;;;;;;17.45;7.13;;;;;;;;;;4769861;30;20040;-76
2022/05/03 03:47:23;;;;;;;11.90;6.70;;;;;;;;;;4952857;29;19923;-78
2022/05/03 03:49:48;;;;;;;9.52;6.30;;;;;;;;;;4954227;29;20052;-78
2022/05/03 03:52:15;;;;;;;10.68;7.18;;;;;;;;;;4954921;29;20020;-79
2022/05/03 03:54:41;;;;;;;9.40;6.93;;;;;;;;;;4952145;29;20026;-79
2022/05/03 03:57:12;;;;;;;11.52;7.13;;;;;;;;;;4971279;28;20027;-78
2022/05/03 03:59:43;;;;;;;12.93;7.00;;;;;;;;;;4969822;28;20019;-80
2022/05/03 04:02:09;;;;;;;11.65;6.32;;;;;;;;;;4969241;28;20027;-79
2022/05/03 04:04:37;;;;;;;10.02;6.97;;;;;;;;;;4967058;28;20042;-79
2022/05/03 04:07:03;;;;;;;;;;;;;;;;;;4964401;28;20024;-80
2022/05/03 04:09:31;;;;;;;11.85;6.95;;;;;;;;;;4967828;28;19929;-79
2022/05/03 04:11:59;;;;;;;11.35;7.10;;;;;;;;;;4966506;28;20050;-79
2022/05/03 04:14:24;;;;;;;11.63;7.43;;;;;;;;;;4964772;28;20080;-79
2022/05/03 04:16:49;;;;;;;15.10;7.85;;;;;;;;;;4966480;28;20019;-80
2022/05/03 04:19:15;;;;;;;14.02;7.80;;;;;;;;;;4966620;28;20019;-79
2022/05/03 04:21:40;;;;;;;15.23;8.50;;;;;;;;;;4966576;28;20015;-79
2022/05/03 04:24:06;;;;;;;12.98;7.55;;;;;;;;;;4966282;28;20026;-79
2022/05/03 04:26:37;;;;;;;17.38;8.10;;;;;;;;;;4967077;28;20023;-79
2022/05/03 04:29:03;;;;;;;13.35;7.72;;;;;;;;;;4965374;29;20023;-79
2022/05/03 04:31:29;;;;;;;17.83;7.18;;;;;;;;;;4965422;28;20035;-79
2022/05/03 04:33:58;;;;;;;17.30;7.72;;;;;;;;;;4966761;28;20038;-79
2022/05/03 04:36:25;;;;;;;12.15;7.47;;;;;;;;;;4967046;29;20023;-79
2022/05/03 04:38:50;;;;;;;15.68;9.25;;;;;;;;;;4964969;28;20045;-79
2022/05/03 04:41:16;;;;;;;13.15;7.40;;;;;;;;;;4960104;28;20026;-79
2022/05/03 04:43:41;;;;;;;14.38;7.95;;;;;;;;;;4959838;28;20062;-79
2022/05/03 04:46:07;;;;;;;14.50;8.25;;;;;;;;;;4958200;29;20035;-80
2022/05/03 04:48:32;;;;;;;11.15;7.68;;;;;;;;;;4960857;28;20084;-79
2022/05/03 04:50:57;;;;;;;13.23;7.53;;;;;;;;;;4964197;28;20019;-78
2022/05/03 04:53:22;;;;;;;10.68;7.78;;;;;;;;;;4964219;28;20106;-79
2022/05/03 04:55:48;;;;;;;12.60;7.30;;;;;;;;;;4965394;28;20019;-79
2022/05/03 04:58:14;;;;;;;12.00;7.78;;;;;;;;;;4967641;28;20020;-79
2022/05/03 05:00:39;;;;;;;13.40;7.65;;;;;;;;;;4966021;28;20062;-79
2022/05/03 05:03:04;;;;;;;10.90;7.10;;;;;;;;;;4966611;28;20053;-79
2022/05/03 05:05:30;;;;;;;11.98;7.85;;;;;;;;;;4966017;29;20042;-78
2022/05/03 05:08:01;;;;;;;18.02;8.52;;;;;;;;;;4966636;28;20042;-78
2022/05/03 05:10:31;;;;;;;14.27;8.02;;;;;;;;;;4967347;28;20091;-77
2022/05/03 05:12:57;;;;;;;13.45;7.40;;;;;;;;;;4964968;28;20034;-76
2022/05/03 05:15:23;;;;;;;14.40;7.18;;;;;;;;;;4965042;28;20020;-78
2022/05/03 05:17:50;;;;;;;14.05;8.13;;;;;;;;;;4964352;28;20020;-78
2022/05/03 05:20:21;;;;;;;13.32;7.68;;;;;;;;;;4964181;28;20022;-79
2022/05/03 05:22:50;;;;;;;12.13;7.45;;;;;;;;;;4963285;28;20026;-78
2022/05/03 05:25:15;;;;;;;12.68;8.23;;;;;;;;;;4964807;28;20031;-79
2022/05/03 05:27:47;;;;;;;24.38;8.05;;;;;;;;;;4966215;28;20031;-79
2022/05/03 05:30:16;;;;;;;13.57;7.50;;;;;;;;;;4965814;28;20031;-79
2022/05/03 05:32:41;;;;;;;;;;;;;;;;;;4964499;28;20031;-79
2022/05/03 05:35:07;;;;;;;12.85;6.97;;;;;;;;;;4964051;28;19907;-79
2022/05/03 05:37:32;;;;;;;19.60;8.70;;;;;;;;;;4964687;28;20019;-78
2022/05/03 05:39:57;;;;;;;21.63;7.68;;;;;;;;;;4966409;28;20517;-79
2022/05/03 05:42:25;;;;;;;12.98;7.55;;;;;;;;;;4966452;28;20019;-78
2022/05/03 05:44:50;;;;;;;12.38;7.80;;;;;;;;;;4963886;29;20019;-79
2022/05/03 05:47:17;;;;;;;17.35;8.27;;;;;;;;;;4967002;28;20491;-79
2022/05/03 05:49:50;;;;;;;17.08;9.00;;;;;;;;;;4964425;28;20157;-79
2022/05/03 05:55:03;;;;;;;17.38;8.00;;;;;;;;;;4964890;29;20058;-78
2022/05/03 05:57:29;;;;;;;16.58;7.85;;;;;;;;;;4964087;28;20015;-79
2022/05/03 05:59:54;;;;;;;10.93;6.72;;;;;;;;;;4961341;28;20022;-80
2022/05/03 06:02:20;;;;;;;14.75;7.63;;;;;;;;;;4962463;28;20055;-80
2022/05/03 06:04:45;;;;;;;13.30;7.45;;;;;;;;;;4960917;28;20027;-79
2022/05/03 06:07:10;;;;;;;15.07;7.50;;;;;;;;;;4961145;29;20038;-81
2022/05/03 06:09:36;;;;;;;13.65;7.82;;;;;;;;;;4960599;28;20019;-79
2022/05/03 06:12:02;;;;;;;16.13;7.68;;;;;;;;;;4961594;28;20042;-78
2022/05/03 06:14:27;;;;;;;11.95;8.07;;;;;;;;;;4962357;28;20091;-79
2022/05/03 06:16:54;;;;;;;18.42;8.68;;;;;;;;;;4961626;28;20078;-79
2022/05/03 06:19:20;;;;;;;17.63;8.07;;;;;;;;;;4959678;28;20091;-79
2022/05/03 06:21:46;;;;;;;13.20;7.43;;;;;;;;;;4961308;28;20061;-80
2022/05/03 06:24:15;;;;;;;14.43;7.97;;;;;;;;;;4961094;28;20024;-80
2022/05/03 06:26:40;;;;;;;12.38;7.45;;;;;;;;;;4958524;28;20019;-79
2022/05/03 06:29:08;;;;;;;11.95;7.32;;;;;;;;;;4962505;28;20023;-80
2022/05/03 06:31:35;;;;;;;13.85;7.43;;;;;;;;;;4963880;28;20062;-79
2022/05/03 06:34:01;;;;;;;12.50;7.22;;;;;;;;;;4962073;28;20026;-79
2022/05/03 06:36:29;;;;;;;13.80;7.68;;;;;;;;;;4960424;28;20019;-78
2022/05/03 06:38:54;;;;;;;10.95;7.55;;;;;;;;;;4961921;28;20475;-79
2022/05/03 06:41:19;;;;;;;10.18;7.15;;;;;;;;;;4959970;28;20051;-78
2022/05/03 06:43:45;;;;;;;13.10;7.53;;;;;;;;;;4961841;29;20089;-78
2022/05/03 06:46:11;;;;;;;12.57;6.78;;;;;;;;;;4961060;28;20035;-78
2022/05/03 06:48:37;;;;;;;19.42;7.40;;;;;;;;;;4960977;29;20058;-80
2022/05/03 06:51:02;;;;;;;13.40;7.32;;;;;;;;;;4959823;28;20051;-79
2022/05/03 06:53:28;;;;;;;10.38;6.40;;;;;;;;;;4960304;28;20023;-78
2022/05/03 06:55:53;;;;;;;10.40;7.20;;;;;;;;;;4960815;28;20019;-78
2022/05/03 06:58:24;;;;;;;13.70;6.75;;;;;;;;;;4960820;28;20023;-79
2022/05/03 07:00:54;;;;;;;12.82;6.85;;;;;;;;;;4960810;28;20034;-79
2022/05/03 07:03:20;;;;;;;12.88;7.13;;;;;;;;;;4960212;28;20027;-79
2022/05/03 07:05:45;;;;;;;13.57;7.22;;;;;;;;;;4960632;28;20030;-78
2022/05/03 07:08:13;;;;;;;10.63;6.75;;;;;;;;;;4958114;28;20059;-80
2022/05/03 07:10:41;;;;;;;10.52;7.10;;;;;;;;;;4958914;28;20023;-77
2022/05/03 07:13:15;;;;;;;13.00;7.60;;;;;;;;;;4958407;28;20027;-78
2022/05/03 07:15:44;;;;;;;12.02;7.07;;;;;;;;;;4958203;28;20078;-78
2022/05/03 07:23:37;;;;;;;11.40;7.07;;;;;;;;;;4957598;29;20038;-80
2022/05/03 07:26:03;;;;;;;16.30;8.65;;;;;;;;;;4958507;28;20027;-78
2022/05/03 07:28:28;;;;;;;10.07;6.28;;;;;;;;;;4960021;28;20027;-78
2022/05/03 07:30:54;;;;;;;13.50;7.07;;;;;;;;;;4959281;28;20016;-79
2022/05/03 07:33:19;;;;;;;15.05;7.07;;;;;;;;;;4957817;28;20077;-79
2022/05/03 07:35:45;;;;;;;11.75;6.55;;;;;;;;;;4957986;29;20035;-78
2022/05/03 07:38:10;;;;;;;11.13;6.45;;;;;;;;;;4958635;28;20030;-78
2022/05/03 07:40:35;;;;;;;10.95;6.60;;;;;;;;;;4959690;28;20020;-78
2022/05/03 07:43:03;;;;;;;21.48;6.93;;;;;;;;;;4958799;28;20058;-79
2022/05/03 07:45:29;;;;;;;13.63;6.75;;;;;;;;;;4956058;28;20034;-79
2022/05/03 07:47:54;;;;;;;9.35;6.57;;;;;;;;;;4957344;28;20024;-79
2022/05/03 07:50:20;;;;;;;15.88;8.48;;;;;;;;;;4957296;28;20027;-78
2022/05/03 07:52:45;;;;;;;16.35;8.18;;;;;;;;;;4958718;29;20070;-78
2022/05/03 07:55:10;;;;;;;13.18;6.57;;;;;;;;;;4959403;28;20039;-78
2022/05/03 07:57:39;;;;;;;11.90;5.90;;;;;;;;;;4956804;28;20030;-77
2022/05/03 08:00:06;;;;;;;12.18;6.35;;;;;;;;;;4957654;29;20035;-78
2022/05/03 08:02:32;;;;;;;11.27;5.97;;;;;;;;;;4957150;28;20554;-77
2022/05/03 08:04:57;;;;;;;11.80;5.68;;;;;;;;;;4956224;28;20035;-78
2022/05/03 08:07:23;;;;;;;14.65;6.93;;;;;;;;;;4956784;28;20082;-78
2022/05/03 08:09:49;;;;;;;10.35;6.28;;;;;;;;;;4956443;28;20372;-79
2022/05/03 08:12:14;;;;;;;10.60;6.20;;;;;;;;;;4954510;28;20027;-79
2022/05/03 08:14:40;;;;;;;9.38;5.93;;;;;;;;;;4956233;28;20027;-80
2022/05/03 08:17:06;;;;;;;15.38;6.43;;;;;;;;;;4958313;28;20050;-77
2022/05/03 08:19:32;;;;;;;9.98;7.32;;;;;;;;;;4957512;28;20019;-80
2022/05/03 08:21:57;;;;;;;10.63;6.22;;;;;;;;;;4957532;28;20059;-82
2022/05/03 08:24:26;;;;;;;9.40;6.47;;;;;;;;;;4956764;28;20038;-77
2022/05/03 08:26:52;;;;;;;14.65;6.72;;;;;;;;;;4957521;29;20019;-77
2022/05/03 08:29:21;;;;;;;13.07;6.68;;;;;;;;;;4959584;28;20027;-77
2022/05/03 08:31:49;;;;;;;;;;;;;;;;;;4958511;28;20019;-79
2022/05/03 08:34:15;;;;;;;14.40;6.00;;;;;;;;;;4958336;28;19946;-79
2022/05/03 08:42:01;;;;;;;14.05;6.05;;;;;;;;;;4957493;28;20086;-76
2022/05/03 08:42:15;;;;;;;13.82;6.57;;;;;;;;;;4960266;28;20079;-76
2022/05/03 08:44:41;;;;;;;12.20;6.00;;;;;;;;;;4957008;28;20023;-77
2022/05/03 08:47:09;;;;;;;8.00;5.13;;;;;;;;;;4959521;28;20070;-78
2022/05/03 08:49:46;;;;;;;10.75;5.38;;;;;;;;;;4962945;28;20058;-76
2022/05/03 08:52:15;;;;;;;12.25;5.28;;;;;;;;;;4959430;28;20027;-76
2022/05/03 08:54:41;;;;;;;11.80;5.40;;;;;;;;;;4957654;28;20023;-79
2022/05/03 08:57:09;;;;;;;8.30;4.88;;;;;;;;;;4958591;28;20023;-78
2022/05/03 08:59:48;;;;;;;12.50;5.05;;;;;;;;;;4958238;28;20030;-78
2022/05/03 09:02:14;;;;;;;17.63;6.20;;;;;;;;;;4957020;29;20031;-77
2022/05/03 09:04:43;;;;;;;16.38;5.47;;;;;;;;;;4956417;28;20034;-79
2022/05/03 09:07:19;;;;;;;11.95;5.55;;;;;;;;;;4956379;28;20027;-78
2022/05/03 09:09:45;;;;;;;10.52;5.10;;;;;;;;;;4956169;28;20039;-77
2022/05/03 09:12:35;;;;;;;9.52;5.15;;;;;;;;;;4955600;28;20087;-76
2022/05/03 09:15:11;;;;;;;10.95;4.93;;;;;;;;;;4956314;28;20239;-78
2022/05/03 09:17:41;;;;;;;9.63;4.80;;;;;;;;;;4957718;28;20078;-79
2022/05/03 09:26:12;;;;;;;15.23;5.10;;;;;;;;;;4920206;29;20075;-80
2022/05/03 09:28:44;;;;;;;15.65;5.40;;;;;;;;;;4903765;29;20028;-78
2022/05/03 09:31:09;;;;;;;9.90;5.28;;;;;;;;;;4900173;29;20499;-79
2022/05/03 09:33:37;;;;;;;9.15;5.18;;;;;;;;;;4900858;29;20035;-79
2022/05/03 09:36:10;;;;;;;8.98;5.50;;;;;;;;;;4900544;29;20052;-79
2022/05/03 09:38:46;;;;;;;11.85;5.93;;;;;;;;;;4900695;29;20065;-78
2022/05/03 09:41:18;;;;;;;12.35;5.50;;;;;;;;;;4902241;29;20020;-77
2022/05/03 09:44:02;;;;;;;8.43;4.95;;;;;;;;;;4900783;29;20056;-78
2022/05/03 09:46:37;;;;;;;9.10;5.30;;;;;;;;;;4900527;29;20084;-79
2022/05/03 09:49:02;;;;;;;9.02;5.03;;;;;;;;;;4900887;29;20028;-79
2022/05/03 09:51:34;;;;;;;14.60;5.78;;;;;;;;;;4915987;29;20130;-78
2022/05/03 09:53:59;;;;;;;8.77;4.88;;;;;;;;;;4914778;23;20044;-77
2022/05/03 09:56:35;;;;;;;8.57;5.32;;;;;;;;;;4899821;29;20027;-77
2022/05/03 09:59:03;;;;;;;9.43;5.10;;;;;;;;;;4900301;29;20076;-77
2022/05/03 10:01:28;;;;;;;9.05;5.45;;;;;;;;;;4898382;29;20040;-78
2022/05/03 10:03:54;;;;;;;9.60;5.35;;;;;;;;;;4898108;29;20033;-77
2022/05/03 10:06:20;;;;;;;8.27;4.78;;;;;;;;;;4896668;29;20065;-77
2022/05/03 10:08:48;;;;;;;10.50;4.93;;;;;;;;;;4898096;29;20465;-77
2022/05/03 10:11:15;;;;;;;8.20;5.00;;;;;;;;;;4898199;29;20076;-76
2022/05/03 10:13:41;;;;;;;8.73;4.78;;;;;;;;;;4897494;29;20032;-76
2022/05/03 10:21:37;;;;;;;9.82;4.38;;;;;;;;;;4901246;29;20439;-76
2022/05/03 10:24:02;;;;;;;12.50;4.85;;;;;;;;;;4901261;29;20016;-77
2022/05/03 10:26:46;;;;;;;7.50;4.50;;;;;;;;;;4901628;29;20489;-77
2022/05/03 10:29:11;;;;;;;12.68;4.45;;;;;;;;;;4901424;29;20024;-78
2022/05/03 10:31:55;;;;;;;10.00;4.55;;;;;;;;;;4901157;29;20035;-77
2022/05/03 10:34:39;;;;;;;11.75;5.57;;;;;;;;;;4898970;29;20107;-76
2022/05/03 10:37:05;;;;;;;12.43;4.55;;;;;;;;;;4901649;29;20031;-77
2022/05/03 10:39:30;;;;;;;10.98;4.20;;;;;;;;;;4899851;29;20052;-77
2022/05/03 10:42:01;;;;;;;8.35;4.10;;;;;;;;;;4899635;29;20020;-76
2022/05/03 10:44:42;;;;;;;7.95;4.00;;;;;;;;;;4899617;29;20047;-76
2022/05/03 10:47:08;;;;;;;16.52;5.47;;;;;;;;;;4897808;29;20061;-76
2022/05/03 10:49:53;;;;;;;36.33;9.70;;;;;;;;;;4897893;29;20059;-79
2022/05/03 10:52:19;;;;;;;8.02;4.05;;;;;;;;;;4897754;29;20504;-76
2022/05/03 10:55:02;;;;;;;13.70;4.57;;;;;;;;;;4911150;29;20165;-77
2022/05/03 10:57:28;;;;;;;7.60;4.30;;;;;;;;;;4915842;29;20254;-77
2022/05/03 11:00:15;;;;;;;14.80;5.17;;;;;;;;;;4916701;29;20456;-78
2022/05/03 11:03:01;;;;;;;10.27;4.50;;;;;;;;;;4898016;29;20266;-78
2022/05/03 11:05:26;;;;;;;10.85;4.63;;;;;;;;;;4916235;29;20024;-76
2022/05/03 11:08:14;;;;;;;7.03;3.80;;;;;;;;;;4898561;29;20020;-76
2022/05/03 11:10:43;;;;;;;7.95;3.83;;;;;;;;;;4915382;29;20028;-75
2022/05/03 11:13:27;;;;;;;7.30;3.85;;;;;;;;;;4915594;29;20063;-75
2022/05/03 11:16:11;;;;;;;9.63;4.43;;;;;;;;;;4913828;29;20084;-74
2022/05/03 11:18:36;;;;;;;7.63;4.03;;;;;;;;;;4915245;29;20135;-75
2022/05/03 11:21:13;;;;;;;6.72;3.90;;;;;;;;;;4913907;29;20099;-75
2022/05/03 11:23:46;;;;;;;7.25;3.47;;;;;;;;;;4914740;29;20027;-75
2022/05/03 11:26:11;;;;;;;10.80;4.35;;;;;;;;;;4913884;29;20060;-76
2022/05/03 11:28:36;;;;;;;7.83;4.00;;;;;;;;;;4915235;29;20424;-73
2022/05/03 11:31:02;;;;;;;9.50;3.73;;;;;;;;;;4914064;29;20809;-74
2022/05/03 11:33:27;;;;;;;14.43;7.00;;;;;;;;;;4914673;29;20295;-76
2022/05/03 11:35:54;;;;;;;8.13;4.60;;;;;;;;;;4915206;29;20027;-76
2022/05/03 11:38:19;;;;;;;8.18;4.72;;;;;;;;;;4915273;29;20330;-76
2022/05/03 11:40:45;;;;;;;8.00;3.83;;;;;;;;;;4913652;29;20448;-76
2022/05/03 11:43:12;;;;;;;9.25;4.82;;;;;;;;;;4914468;29;20034;-74
2022/05/03 11:45:38;;;;;;;12.15;5.45;;;;;;;;;;4914575;29;20024;-75
2022/05/03 11:48:03;;;;;;;8.80;5.28;;;;;;;;;;4915532;29;20476;-76
2022/05/03 11:56:00;;;;;;;8.10;4.78;;;;;;;;;;4917904;29;20402;-75
2022/05/03 11:58:27;;;;;;;9.73;4.90;;;;;;;;;;4906874;29;20020;-77
2022/05/03 12:00:52;;;;;;;8.18;4.40;;;;;;;;;;4917783;29;20054;-76
2022/05/03 12:03:18;;;;;;;11.67;4.30;;;;;;;;;;4918414;29;20480;-75
2022/05/03 12:05:58;;;;;;;10.30;4.18;;;;;;;;;;4918756;29;20037;-77
2022/05/03 12:08:24;;;;;;;7.05;3.85;;;;;;;;;;4918281;29;20020;-75
2022/05/03 12:10:50;;;;;;;7.95;4.72;;;;;;;;;;4918564;29;20020;-76
2022/05/03 12:13:16;;;;;;;10.68;5.13;;;;;;;;;;4916564;29;20081;-76
2022/05/03 12:16:00;;;;;;;7.10;4.00;;;;;;;;;;4909437;29;20031;-76
2022/05/03 12:18:28;;;;;;;8.50;5.03;;;;;;;;;;4917276;29;20391;-76
2022/05/03 12:20:54;;;;;;;;;;;;;;;;;;4918915;29;20017;-77
2022/05/03 12:23:34;;;;;;;7.57;4.10;;;;;;;;;;4918729;29;19914;-77
2022/05/03 12:26:01;;;;;;;11.95;3.95;;;;;;;;;;4918783;29;20028;-77
2022/05/03 12:28:38;;;;;;;7.60;3.92;;;;;;;;;;4918560;29;20056;-77
2022/05/03 12:31:11;;;;;;;7.25;3.63;;;;;;;;;;4917416;29;20020;-76
2022/05/03 12:33:49;;;;;;;6.28;3.70;;;;;;;;;;4917036;29;20100;-75
2022/05/03 12:36:33;;;;;;;5.45;3.42;;;;;;;;;;4919057;29;20475;-77
2022/05/03 12:39:19;;;;;;;8.07;4.35;;;;;;;;;;4917215;29;20027;-76
2022/05/03 12:41:45;;;;;;;10.15;4.03;;;;;;;;;;4918214;29;20031;-76
2022/05/03 12:44:26;;;;;;;11.27;4.30;;;;;;;;;;4916489;29;20020;-76
2022/05/03 12:47:39;;;;;;;6.82;4.60;;;;;;;;;;4902176;29;20021;-74
2022/05/03 12:53:40;;;;;;;7.78;3.83;;;;;;;;;;4844100;29;20508;-77
2022/05/03 13:00:39;;;;;;;10.13;4.03;;;;;;;;;;5011007;27;20435;-76
2022/05/03 13:03:05;;;;;;;7.23;3.80;;;;;;;;;;4997518;28;20045;-79
2022/05/03 13:05:30;;;;;;;8.50;4.72;;;;;;;;;;4976286;28;20030;-76
2022/05/03 13:07:56;;;;;;;7.07;4.47;;;;;;;;;;4974064;28;20038;-77
2022/05/03 13:10:23;;;;;;;31.67;5.93;;;;;;;;;;4975880;28;20046;-78
2022/05/03 13:12:53;;;;;;;7.38;3.38;;;;;;;;;;4991215;28;20034;-77
2022/05/03 13:15:18;;;;;;;5.90;3.55;;;;;;;;;;4991821;28;20037;-78
2022/05/03 13:17:44;;;;;;;9.02;4.00;;;;;;;;;;4974813;28;20089;-75
2022/05/03 13:20:11;;;;;;;9.48;4.18;;;;;;;;;;4990158;28;20030;-77
2022/05/03 13:22:37;;;;;;;7.35;3.85;;;;;;;;;;4991867;28;20030;-76
2022/05/03 13:25:19;;;;;;;6.53;3.75;;;;;;;;;;4999183;28;20039;-76
2022/05/03 13:27:57;;;;;;;;;;;;;;;;;;5006294;28;20026;-76
2022/05/03 13:30:35;;;;;;;6.97;3.80;;;;;;;;;;4985841;28;19999;-75
2022/05/03 13:33:01;;;;;;;7.30;3.95;;;;;;;;;;4988100;28;20030;-77
2022/05/03 13:41:19;;;;;;;7.70;3.63;;;;;;;;;;5009301;28;20446;-75
2022/05/03 13:43:46;;;;;;;12.13;4.90;;;;;;;;;;5008207;28;20026;-77
2022/05/03 13:46:12;;;;;;;9.05;3.70;;;;;;;;;;5007569;28;20030;-78
2022/05/03 13:48:37;;;;;;;7.95;3.92;;;;;;;;;;5025370;28;20037;-77
2022/05/03 13:51:04;;;;;;;12.23;4.25;;;;;;;;;;5008292;28;20261;-77
2022/05/03 13:53:30;;;;;;;9.52;4.63;;;;;;;;;;5009150;28;20065;-76
2022/05/03 13:55:56;;;;;;;8.45;4.43;;;;;;;;;;4974741;28;20038;-78
2022/05/03 13:58:22;;;;;;;9.55;4.00;;;;;;;;;;5007583;28;20026;-77
2022/05/03 14:00:47;;;;;;;7.32;3.97;;;;;;;;;;5008066;28;20066;-77
2022/05/03 14:03:16;;;;;;;9.18;4.63;;;;;;;;;;4997239;28;20044;-77
2022/05/03 14:05:45;;;;;;;8.93;4.03;;;;;;;;;;5007060;28;20474;-75
2022/05/03 14:08:27;;;;;;;8.98;3.70;;;;;;;;;;5008981;28;20022;-78
2022/05/03 14:10:55;;;;;;;12.75;4.68;;;;;;;;;;4999279;28;20034;-76
2022/05/03 14:13:21;;;;;;;9.27;4.78;;;;;;;;;;4993775;28;20026;-76
2022/05/03 14:15:46;;;;;;;8.00;3.78;;;;;;;;;;4994788;28;20038;-75
2022/05/03 14:18:12;;;;;;;14.40;4.50;;;;;;;;;;4994450;28;20034;-78
2022/05/03 14:20:38;;;;;;;10.77;4.28;;;;;;;;;;4959984;28;20042;-77
2022/05/03 14:23:03;;;;;;;6.13;3.30;;;;;;;;;;4957790;28;20145;-77
2022/05/03 14:25:31;;;;;;;8.80;3.50;;;;;;;;;;4975513;28;20043;-76
2022/05/03 14:27:56;;;;;;;5.20;3.10;;;;;;;;;;4975655;28;20031;-77
2022/05/03 14:30:21;;;;;;;7.60;3.38;;;;;;;;;;4975121;28;20529;-77
2022/05/03 14:32:47;;;;;;;6.88;3.33;;;;;;;;;;4974882;28;20031;-78
2022/05/03 14:35:14;;;;;;;13.70;3.50;;;;;;;;;;4974742;28;20110;-77
2022/05/03 14:37:40;;;;;;;7.20;4.22;;;;;;;;;;4968535;28;20046;-78
2022/05/03 14:40:06;;;;;;;10.88;4.55;;;;;;;;;;4993965;28;20585;-75
2022/05/03 14:42:34;;;;;;;7.80;4.20;;;;;;;;;;4995089;28;20036;-77
2022/05/03 14:45:00;;;;;;;9.43;3.70;;;;;;;;;;5012179;28;20053;-77
2022/05/03 14:47:44;;;;;;;7.47;3.90;;;;;;;;;;4994020;28;20065;-75
2022/05/03 14:50:11;;;;;;;6.90;4.25;;;;;;;;;;5000491;28;20030;-77
2022/05/03 14:52:40;;;;;;;7.13;3.65;;;;;;;;;;5002416;28;20034;-78
2022/05/03 14:55:05;;;;;;;6.93;3.15;;;;;;;;;;4985524;28;20035;-78
2022/05/03 15:03:00;;;;;;;8.07;3.30;;;;;;;;;;4995412;28;20041;-77
2022/05/03 15:05:30;;;;;;;7.90;3.60;;;;;;;;;;4993657;28;20038;-76
2022/05/03 15:08:17;;;;;;;12.45;3.72;;;;;;;;;;4976736;28;20034;-76
2022/05/03 15:10:43;;;;;;;6.30;3.22;;;;;;;;;;4992894;28;20022;-76
2022/05/03 15:13:09;;;;;;;8.45;3.40;;;;;;;;;;4993483;28;20038;-76
2022/05/03 15:15:35;;;;;;;5.47;3.38;;;;;;;;;;4992851;28;20061;-77
2022/05/03 15:18:02;;;;;;;5.60;3.03;;;;;;;;;;5009094;28;20414;-78
2022/05/03 15:20:29;;;;;;;8.48;3.03;;;;;;;;;;4993966;28;20097;-76
2022/05/03 15:25:42;;;;;;;7.50;2.75;;;;;;;;;;4992921;28;20034;-78
2022/05/03 15:28:08;;;;;;;6.90;3.10;;;;;;;;;;4989256;28;20026;-77
2022/05/03 15:30:35;;;;;;;7.00;2.95;;;;;;;;;;5008461;28;20038;-77
2022/05/03 15:33:12;;;;;;;4.78;2.85;;;;;;;;;;4962266;28;20064;-76
2022/05/03 15:35:38;;;;;;;4.15;2.72;;;;;;;;;;4976021;28;20490;-76
2022/05/03 15:38:04;;;;;;;8.38;3.17;;;;;;;;;;4993717;28;20568;-77
2022/05/03 15:40:30;;;;;;;8.27;3.50;;;;;;;;;;4977101;28;20082;-79
2022/05/03 15:42:56;;;;;;;12.48;3.60;;;;;;;;;;5008294;28;20053;-77
2022/05/03 15:45:21;;;;;;;6.03;3.20;;;;;;;;;;4992233;28;20026;-78
2022/05/03 15:47:50;;;;;;;9.60;3.25;;;;;;;;;;4994066;28;20052;-77
2022/05/03 15:50:16;;;;;;;7.00;2.90;;;;;;;;;;4977039;28;20034;-77
2022/05/03 15:52:43;;;;;;;8.32;2.90;;;;;;;;;;4959528;28;20521;-76
2022/05/03 15:55:09;;;;;;;5.90;2.95;;;;;;;;;;4986962;23;20046;-84
2022/05/03 16:00:36;;;;;;;12.10;7.28;;;;;;;;;;4959045;28;20071;-83
2022/05/03 16:03:04;;;;;;;10.00;3.97;;;;;;;;;;4991156;28;20486;-83
2022/05/03 16:05:30;;;;;;;;;;;;;;;;;;4939507;28;20043;-84
2022/05/03 16:07:55;;;;;;;8.38;5.88;;;;;;;;;;4954322;29;19910;-82
2022/05/03 16:10:21;;;;;;;6.95;4.82;;;;;;;;;;4954683;29;20023;-83
2022/05/03 16:12:47;;;;;;;7.68;2.97;;;;;;;;;;4954352;28;20090;-83
2022/05/03 16:15:13;;;;;;;6.05;2.80;;;;;;;;;;4954191;28;20034;-84
2022/05/03 16:17:39;;;;;;;9.52;2.58;;;;;;;;;;4937102;29;20390;-83
2022/05/03 16:20:05;;;;;;;9.13;3.53;;;;;;;;;;4946704;28;20042;-83